Biotrans — JWPN — position and weather

sailwx.info

Track history (hours):
 
Tides and Currents Weather Stations Pressure Air Temp Water Temp Dewpoint Dewpoint Depression Visibility Wind Speed Wind Dir Waves Ship Positions

Biotrans

Last reported at 2017-Jan-20 18:33 UTC. Time now 2017-Jan-24 13:20 UTC.
Position N 69°16' E 017°58'.

Length 55 m; draft 5.5 m.

Type: Cargo ship. MMSI: 259260000.

Date/timePositionNaut miles runAvg speedWind from/ knotsBaromVisibWave heightAir tempDewpointWater temp
2017-Jan-20 18:33N 69°16' E 017°58'5 5.1
2017-Jan-20 17:33N 69°11' E 018°00'9 8.7
2017-Jan-20 16:33N 69°07' E 017°38'10 8.3
2017-Jan-20 15:20N 69°01' E 017°16'99 4.5
2017-Jan-19 17:08N 67°42' E 014°31'5 5.9
2017-Jan-19 16:21N 67°39' E 014°39'5 2.9
2017-Jan-19 14:30N 67°34' E 014°45'1 1.1
2017-Jan-19 13:33N 67°34' E 014°48'3 2.5
2017-Jan-19 12:14N 67°38' E 014°46'4 4.0
2017-Jan-19 11:17N 67°34' E 014°44'4 1.4
2017-Jan-19 08:23N 67°38' E 014°44'6 1.0
2017-Jan-19 02:17N 67°38' E 015°00'9 2.3
2017-Jan-18 22:08N 67°31' E 014°41'5 8.8
2017-Jan-18 21:33N 67°27' E 014°33'8 8.5
2017-Jan-18 20:33N 67°20' E 014°21'9 8.6
2017-Jan-18 19:33N 67°13' E 014°09'9 9.0
2017-Jan-18 18:33N 67°05' E 013°57'9 9.1
2017-Jan-18 17:30N 66°59' E 013°40'19 8.3
2017-Jan-18 15:17N 66°44' E 013°11'15 8.8
2017-Jan-18 13:33N 66°29' E 012°59'10 9.7
2017-Jan-18 12:33N 66°20' E 012°56'13 9.3
2017-Jan-18 11:09N 66°07' E 012°46'51 8.7
2017-Jan-18 05:19N 65°20' E 012°02'7 9.1
2017-Jan-18 04:32N 65°14' E 011°54'9 9.2
2017-Jan-18 03:33N 65°05' E 011°47'9 8.7
2017-Jan-18 02:33N 64°58' E 011°34'9 9.3
2017-Jan-18 01:33N 64°52' E 011°17'9 8.7
2017-Jan-18 00:33N 64°46' E 011°02'2 0.0
2017-Jan-16 05:33N 64°45' E 010°59'1010.1
2017-Jan-16 04:33N 64°52' E 011°16'1010.1
2017-Jan-16 03:33N 64°58' E 011°34'10 9.7
2017-Jan-16 02:33N 65°06' E 011°48'78 9.5
2017-Jan-15 18:21N 66°19' E 012°56'810.3
2017-Jan-15 17:33N 66°27' E 012°59'13 9.2
2017-Jan-15 16:08N 66°40' E 013°07'19 9.7
2017-Jan-15 14:10N 66°57' E 013°29'6 9.2
2017-Jan-15 13:33N 67°00' E 013°40'10 9.7
2017-Jan-15 12:33N 67°07' E 013°59'9 9.4
2017-Jan-15 11:33N 67°15' E 014°11'10 9.7
2017-Jan-15 10:33N 67°23' E 014°25'96 8.8
2017-Jan-14 23:33N 68°44' E 016°44'1410.1
2017-Jan-14 22:09N 68°56' E 017°05'7 9.6
2017-Jan-14 21:25N 69°01' E 017°17'7 8.5
2017-Jan-14 20:33N 69°06' E 017°33'1110.6
2017-Jan-14 19:33N 69°11' E 017°60'  
Track history (hours):
 
Tides and Currents Weather Stations Pressure Air Temp Water Temp Dewpoint Dewpoint Depression Visibility Wind Speed Wind Dir Waves Ship Positions

Biotrans

Last reported at 2017-Jan-20 18:33 UTC. Time now 2017-Jan-24 13:20 UTC.
Position N 69°16' E 017°58'.

Length 55 m; draft 5.5 m.

Type: Cargo ship. MMSI: 259260000.

Date/timePositionNaut miles runAvg speedWind from/ knotsBaromVisibWave heightAir tempDewpointWater temp
2017-Jan-20 18:33N 69°16' E 017°58'5 5.1
2017-Jan-20 17:33N 69°11' E 018°00'9 8.7
2017-Jan-20 16:33N 69°07' E 017°38'10 8.3
2017-Jan-20 15:20N 69°01' E 017°16'99 4.5
2017-Jan-19 17:08N 67°42' E 014°31'5 5.9
2017-Jan-19 16:21N 67°39' E 014°39'5 2.9
2017-Jan-19 14:30N 67°34' E 014°45'1 1.1
2017-Jan-19 13:33N 67°34' E 014°48'3 2.5
2017-Jan-19 12:14N 67°38' E 014°46'4 4.0
2017-Jan-19 11:17N 67°34' E 014°44'4 1.4
2017-Jan-19 08:23N 67°38' E 014°44'6 1.0
2017-Jan-19 02:17N 67°38' E 015°00'9 2.3
2017-Jan-18 22:08N 67°31' E 014°41'5 8.8
2017-Jan-18 21:33N 67°27' E 014°33'8 8.5
2017-Jan-18 20:33N 67°20' E 014°21'9 8.6
2017-Jan-18 19:33N 67°13' E 014°09'9 9.0
2017-Jan-18 18:33N 67°05' E 013°57'9 9.1
2017-Jan-18 17:30N 66°59' E 013°40'19 8.3
2017-Jan-18 15:17N 66°44' E 013°11'15 8.8
2017-Jan-18 13:33N 66°29' E 012°59'10 9.7
2017-Jan-18 12:33N 66°20' E 012°56'13 9.3
2017-Jan-18 11:09N 66°07' E 012°46'51 8.7
2017-Jan-18 05:19N 65°20' E 012°02'7 9.1
2017-Jan-18 04:32N 65°14' E 011°54'9 9.2
2017-Jan-18 03:33N 65°05' E 011°47'9 8.7
2017-Jan-18 02:33N 64°58' E 011°34'9 9.3
2017-Jan-18 01:33N 64°52' E 011°17'9 8.7
2017-Jan-18 00:33N 64°46' E 011°02'2 0.0
2017-Jan-16 05:33N 64°45' E 010°59'1010.1
2017-Jan-16 04:33N 64°52' E 011°16'1010.1
2017-Jan-16 03:33N 64°58' E 011°34'10 9.7
2017-Jan-16 02:33N 65°06' E 011°48'78 9.5
2017-Jan-15 18:21N 66°19' E 012°56'810.3
2017-Jan-15 17:33N 66°27' E 012°59'13 9.2
2017-Jan-15 16:08N 66°40' E 013°07'19 9.7
2017-Jan-15 14:10N 66°57' E 013°29'6 9.2
2017-Jan-15 13:33N 67°00' E 013°40'10 9.7
2017-Jan-15 12:33N 67°07' E 013°59'9 9.4
2017-Jan-15 11:33N 67°15' E 014°11'10 9.7
2017-Jan-15 10:33N 67°23' E 014°25'96 8.8
2017-Jan-14 23:33N 68°44' E 016°44'1410.1
2017-Jan-14 22:09N 68°56' E 017°05'7 9.6
2017-Jan-14 21:25N 69°01' E 017°17'7 8.5
2017-Jan-14 20:33N 69°06' E 017°33'1110.6
2017-Jan-14 19:33N 69°11' E 017°60'  

Dump ship's entire track history